sensor_id;sensor_type;location;lat;lon;timestamp;P1;durP1;ratioP1;P2;durP2;ratioP2
76745;SDS011;65671;49.976;20.038;2024-03-23T00:53:10;10.27;;;6.07;;
76745;SDS011;65671;49.976;20.038;2024-03-23T00:55:36;9.00;;;5.57;;
76745;SDS011;65671;49.976;20.038;2024-03-23T00:58:02;10.40;;;5.78;;
76745;SDS011;65671;49.976;20.038;2024-03-23T01:00:30;9.32;;;5.60;;
76745;SDS011;65671;49.976;20.038;2024-03-23T01:02:56;9.52;;;5.38;;
76745;SDS011;65671;49.976;20.038;2024-03-23T01:05:22;11.23;;;6.03;;
76745;SDS011;65671;49.976;20.038;2024-03-23T01:07:47;11.23;;;5.85;;
76745;SDS011;65671;49.976;20.038;2024-03-23T01:10:12;9.77;;;5.10;;
76745;SDS011;65671;49.976;20.038;2024-03-23T01:12:38;13.15;;;6.25;;
76745;SDS011;65671;49.976;20.038;2024-03-23T01:15:03;11.27;;;6.20;;
76745;SDS011;65671;49.976;20.038;2024-03-23T01:17:29;10.55;;;6.60;;
76745;SDS011;65671;49.976;20.038;2024-03-23T01:19:54;13.00;;;5.60;;
76745;SDS011;65671;49.976;20.038;2024-03-23T01:22:20;8.77;;;5.50;;
76745;SDS011;65671;49.976;20.038;2024-03-23T01:24:45;9.50;;;5.93;;
76745;SDS011;65671;49.976;20.038;2024-03-23T01:27:10;9.18;;;5.03;;
76745;SDS011;65671;49.976;20.038;2024-03-23T01:29:36;12.07;;;5.95;;
76745;SDS011;65671;49.976;20.038;2024-03-23T01:32:01;8.00;;;5.20;;
76745;SDS011;65671;49.976;20.038;2024-03-23T01:34:27;11.30;;;5.57;;
76745;SDS011;65671;49.976;20.038;2024-03-23T01:36:53;9.35;;;5.40;;
76745;SDS011;65671;49.976;20.038;2024-03-23T01:39:18;9.80;;;5.53;;
76745;SDS011;65671;49.976;20.038;2024-03-23T01:41:44;10.73;;;5.82;;
76745;SDS011;65671;49.976;20.038;2024-03-23T01:44:09;9.80;;;4.95;;
76745;SDS011;65671;49.976;20.038;2024-03-23T01:46:36;8.77;;;5.28;;
76745;SDS011;65671;49.976;20.038;2024-03-23T01:49:03;8.02;;;4.95;;
76745;SDS011;65671;49.976;20.038;2024-03-23T01:51:30;8.88;;;5.68;;
76745;SDS011;65671;49.976;20.038;2024-03-23T01:53:56;8.63;;;4.93;;
76745;SDS011;65671;49.976;20.038;2024-03-23T01:56:22;8.95;;;5.03;;
76745;SDS011;65671;49.976;20.038;2024-03-23T01:58:48;9.18;;;5.13;;
76745;SDS011;65671;49.976;20.038;2024-03-23T02:01:13;11.18;;;5.43;;
76745;SDS011;65671;49.976;20.038;2024-03-23T02:03:39;10.02;;;5.43;;
76745;SDS011;65671;49.976;20.038;2024-03-23T02:06:04;8.65;;;5.07;;
76745;SDS011;65671;49.976;20.038;2024-03-23T02:08:32;12.50;;;5.60;;
76745;SDS011;65671;49.976;20.038;2024-03-23T02:10:57;10.07;;;5.25;;
76745;SDS011;65671;49.976;20.038;2024-03-23T02:13:23;8.55;;;5.53;;
76745;SDS011;65671;49.976;20.038;2024-03-23T02:15:49;11.50;;;5.57;;
76745;SDS011;65671;49.976;20.038;2024-03-23T02:18:14;8.65;;;5.40;;
76745;SDS011;65671;49.976;20.038;2024-03-23T02:20:40;9.95;;;5.47;;
76745;SDS011;65671;49.976;20.038;2024-03-23T02:23:05;10.82;;;6.35;;
76745;SDS011;65671;49.976;20.038;2024-03-23T02:25:37;9.65;;;5.28;;
76745;SDS011;65671;49.976;20.038;2024-03-23T02:28:03;9.38;;;5.00;;
76745;SDS011;65671;49.976;20.038;2024-03-23T02:30:29;10.65;;;5.20;;
76745;SDS011;65671;49.976;20.038;2024-03-23T02:32:54;8.65;;;5.22;;
76745;SDS011;65671;49.976;20.038;2024-03-23T02:35:19;8.90;;;4.63;;
76745;SDS011;65671;49.976;20.038;2024-03-23T02:37:46;8.43;;;4.53;;
76745;SDS011;65671;49.976;20.038;2024-03-23T02:40:13;8.75;;;5.15;;
76745;SDS011;65671;49.976;20.038;2024-03-23T02:42:38;11.10;;;6.07;;
76745;SDS011;65671;49.976;20.038;2024-03-23T02:45:04;14.18;;;6.88;;
76745;SDS011;65671;49.976;20.038;2024-03-23T02:47:30;13.35;;;7.50;;
76745;SDS011;65671;49.976;20.038;2024-03-23T02:49:55;14.65;;;9.38;;
76745;SDS011;65671;49.976;20.038;2024-03-23T02:52:21;13.20;;;8.50;;
76745;SDS011;65671;49.976;20.038;2024-03-23T02:54:46;16.77;;;9.43;;
76745;SDS011;65671;49.976;20.038;2024-03-23T02:57:12;15.98;;;9.10;;
76745;SDS011;65671;49.976;20.038;2024-03-23T02:59:37;16.52;;;9.35;;
76745;SDS011;65671;49.976;20.038;2024-03-23T03:02:02;13.18;;;7.63;;
76745;SDS011;65671;49.976;20.038;2024-03-23T03:04:31;15.13;;;8.50;;
76745;SDS011;65671;49.976;20.038;2024-03-23T03:06:57;15.63;;;8.57;;
76745;SDS011;65671;49.976;20.038;2024-03-23T03:09:23;15.45;;;9.35;;
76745;SDS011;65671;49.976;20.038;2024-03-23T03:11:48;18.90;;;9.73;;
76745;SDS011;65671;49.976;20.038;2024-03-23T03:14:14;16.08;;;9.30;;
76745;SDS011;65671;49.976;20.038;2024-03-23T03:16:39;22.40;;;11.93;;
76745;SDS011;65671;49.976;20.038;2024-03-23T03:19:05;19.90;;;11.35;;
76745;SDS011;65671;49.976;20.038;2024-03-23T03:21:31;16.75;;;10.10;;
76745;SDS011;65671;49.976;20.038;2024-03-23T03:23:57;26.05;;;16.40;;
76745;SDS011;65671;49.976;20.038;2024-03-23T03:26:23;19.30;;;10.90;;
76745;SDS011;65671;49.976;20.038;2024-03-23T03:28:49;23.40;;;12.23;;
76745;SDS011;65671;49.976;20.038;2024-03-23T03:31:15;16.27;;;9.70;;
76745;SDS011;65671;49.976;20.038;2024-03-23T03:33:41;14.65;;;8.55;;
76745;SDS011;65671;49.976;20.038;2024-03-23T03:36:07;13.65;;;7.43;;
76745;SDS011;65671;49.976;20.038;2024-03-23T03:38:33;11.73;;;6.93;;
76745;SDS011;65671;49.976;20.038;2024-03-23T03:41:00;11.88;;;7.53;;
76745;SDS011;65671;49.976;20.038;2024-03-23T03:43:26;13.90;;;7.38;;
76745;SDS011;65671;49.976;20.038;2024-03-23T03:45:52;13.68;;;7.63;;
76745;SDS011;65671;49.976;20.038;2024-03-23T03:48:18;13.95;;;7.90;;
76745;SDS011;65671;49.976;20.038;2024-03-23T03:50:44;12.43;;;7.40;;
76745;SDS011;65671;49.976;20.038;2024-03-23T03:53:09;12.88;;;7.07;;
76745;SDS011;65671;49.976;20.038;2024-03-23T03:55:35;11.85;;;7.15;;
76745;SDS011;65671;49.976;20.038;2024-03-23T03:58:00;10.48;;;6.57;;
76745;SDS011;65671;49.976;20.038;2024-03-23T04:00:25;10.43;;;6.80;;
76745;SDS011;65671;49.976;20.038;2024-03-23T04:02:51;10.98;;;6.40;;
76745;SDS011;65671;49.976;20.038;2024-03-23T04:05:16;10.75;;;6.20;;
76745;SDS011;65671;49.976;20.038;2024-03-23T04:07:42;10.15;;;6.20;;
76745;SDS011;65671;49.976;20.038;2024-03-23T04:10:08;10.52;;;6.50;;
76745;SDS011;65671;49.976;20.038;2024-03-23T04:12:34;13.70;;;6.20;;
76745;SDS011;65671;49.976;20.038;2024-03-23T04:15:00;11.95;;;6.28;;
76745;SDS011;65671;49.976;20.038;2024-03-23T04:17:26;9.38;;;5.65;;
76745;SDS011;65671;49.976;20.038;2024-03-23T04:19:56;10.70;;;6.05;;
76745;SDS011;65671;49.976;20.038;2024-03-23T04:22:22;10.02;;;6.00;;
76745;SDS011;65671;49.976;20.038;2024-03-23T04:24:49;10.82;;;5.40;;
76745;SDS011;65671;49.976;20.038;2024-03-23T04:27:14;10.80;;;5.85;;
76745;SDS011;65671;49.976;20.038;2024-03-23T04:29:40;9.13;;;4.70;;
76745;SDS011;65671;49.976;20.038;2024-03-23T04:32:05;9.32;;;5.45;;
76745;SDS011;65671;49.976;20.038;2024-03-23T04:34:31;9.73;;;5.63;;
76745;SDS011;65671;49.976;20.038;2024-03-23T04:36:58;9.23;;;5.05;;
76745;SDS011;65671;49.976;20.038;2024-03-23T04:39:23;8.23;;;5.40;;
76745;SDS011;65671;49.976;20.038;2024-03-23T04:41:49;8.27;;;4.80;;
76745;SDS011;65671;49.976;20.038;2024-03-23T04:44:15;9.98;;;5.13;;
76745;SDS011;65671;49.976;20.038;2024-03-23T04:46:40;8.77;;;4.60;;
76745;SDS011;65671;49.976;20.038;2024-03-23T04:49:06;8.85;;;6.13;;
76745;SDS011;65671;49.976;20.038;2024-03-23T04:51:35;8.80;;;4.78;;
76745;SDS011;65671;49.976;20.038;2024-03-23T04:54:02;10.27;;;5.07;;
76745;SDS011;65671;49.976;20.038;2024-03-23T04:56:29;12.25;;;7.93;;
76745;SDS011;65671;49.976;20.038;2024-03-23T04:58:54;8.50;;;5.28;;
76745;SDS011;65671;49.976;20.038;2024-03-23T05:01:20;11.25;;;4.95;;
76745;SDS011;65671;49.976;20.038;2024-03-23T05:03:45;8.60;;;5.22;;
76745;SDS011;65671;49.976;20.038;2024-03-23T05:06:10;10.68;;;5.53;;
76745;SDS011;65671;49.976;20.038;2024-03-23T05:08:36;12.57;;;5.45;;
76745;SDS011;65671;49.976;20.038;2024-03-23T05:11:01;8.35;;;4.45;;
76745;SDS011;65671;49.976;20.038;2024-03-23T05:13:27;6.68;;;4.90;;
76745;SDS011;65671;49.976;20.038;2024-03-23T05:15:53;7.43;;;4.85;;
76745;SDS011;65671;49.976;20.038;2024-03-23T05:18:19;7.97;;;5.28;;
76745;SDS011;65671;49.976;20.038;2024-03-23T05:20:45;9.10;;;4.95;;
76745;SDS011;65671;49.976;20.038;2024-03-23T05:23:11;8.98;;;4.88;;
76745;SDS011;65671;49.976;20.038;2024-03-23T05:25:36;8.38;;;4.88;;
76745;SDS011;65671;49.976;20.038;2024-03-23T05:28:02;8.38;;;4.93;;
76745;SDS011;65671;49.976;20.038;2024-03-23T05:30:27;8.77;;;5.13;;
76745;SDS011;65671;49.976;20.038;2024-03-23T05:32:53;9.80;;;4.93;;
76745;SDS011;65671;49.976;20.038;2024-03-23T05:35:19;9.55;;;5.13;;
76745;SDS011;65671;49.976;20.038;2024-03-23T05:37:44;7.82;;;4.53;;
76745;SDS011;65671;49.976;20.038;2024-03-23T05:40:10;8.50;;;5.38;;
76745;SDS011;65671;49.976;20.038;2024-03-23T05:42:37;15.43;;;9.57;;
76745;SDS011;65671;49.976;20.038;2024-03-23T05:45:03;9.25;;;5.68;;
76745;SDS011;65671;49.976;20.038;2024-03-23T05:47:31;9.85;;;4.95;;
76745;SDS011;65671;49.976;20.038;2024-03-23T05:49:57;9.80;;;4.88;;
76745;SDS011;65671;49.976;20.038;2024-03-23T05:52:23;7.97;;;5.68;;
76745;SDS011;65671;49.976;20.038;2024-03-23T05:54:50;8.77;;;5.40;;
76745;SDS011;65671;49.976;20.038;2024-03-23T05:57:16;9.15;;;5.07;;
76745;SDS011;65671;49.976;20.038;2024-03-23T05:59:41;9.55;;;5.38;;
76745;SDS011;65671;49.976;20.038;2024-03-23T06:02:07;13.52;;;5.30;;
76745;SDS011;65671;49.976;20.038;2024-03-23T06:04:35;11.45;;;5.57;;
76745;SDS011;65671;49.976;20.038;2024-03-23T06:07:00;8.15;;;4.95;;
76745;SDS011;65671;49.976;20.038;2024-03-23T06:09:26;7.88;;;5.07;;
76745;SDS011;65671;49.976;20.038;2024-03-23T06:11:51;7.15;;;4.82;;
76745;SDS011;65671;49.976;20.038;2024-03-23T06:14:17;8.05;;;5.03;;
76745;SDS011;65671;49.976;20.038;2024-03-23T06:16:42;8.50;;;4.97;;
76745;SDS011;65671;49.976;20.038;2024-03-23T06:19:08;8.70;;;5.13;;
76745;SDS011;65671;49.976;20.038;2024-03-23T06:21:33;8.20;;;4.78;;
76745;SDS011;65671;49.976;20.038;2024-03-23T06:23:59;8.60;;;5.72;;
76745;SDS011;65671;49.976;20.038;2024-03-23T06:26:24;8.38;;;5.05;;
76745;SDS011;65671;49.976;20.038;2024-03-23T06:28:49;9.73;;;5.30;;
76745;SDS011;65671;49.976;20.038;2024-03-23T06:31:15;9.13;;;5.70;;
76745;SDS011;65671;49.976;20.038;2024-03-23T06:33:41;8.40;;;4.93;;
76745;SDS011;65671;49.976;20.038;2024-03-23T06:36:08;12.30;;;5.70;;
76745;SDS011;65671;49.976;20.038;2024-03-23T06:38:38;10.60;;;5.93;;
76745;SDS011;65671;49.976;20.038;2024-03-23T06:41:06;10.15;;;6.10;;
76745;SDS011;65671;49.976;20.038;2024-03-23T06:43:31;9.68;;;5.13;;
76745;SDS011;65671;49.976;20.038;2024-03-23T06:45:57;7.55;;;5.50;;
76745;SDS011;65671;49.976;20.038;2024-03-23T06:48:23;7.85;;;5.43;;
76745;SDS011;65671;49.976;20.038;2024-03-23T06:50:48;10.98;;;5.50;;
76745;SDS011;65671;49.976;20.038;2024-03-23T06:53:14;11.43;;;6.00;;
76745;SDS011;65671;49.976;20.038;2024-03-23T06:55:40;11.77;;;6.15;;
76745;SDS011;65671;49.976;20.038;2024-03-23T06:58:05;7.95;;;4.80;;
76745;SDS011;65671;49.976;20.038;2024-03-23T07:00:31;8.75;;;5.28;;
76745;SDS011;65671;49.976;20.038;2024-03-23T07:02:57;10.18;;;5.75;;
76745;SDS011;65671;49.976;20.038;2024-03-23T07:05:23;9.07;;;5.13;;
76745;SDS011;65671;49.976;20.038;2024-03-23T07:07:49;11.15;;;6.30;;
76745;SDS011;65671;49.976;20.038;2024-03-23T07:10:14;8.98;;;5.93;;
76745;SDS011;65671;49.976;20.038;2024-03-23T07:12:40;10.27;;;6.00;;
76745;SDS011;65671;49.976;20.038;2024-03-23T07:15:05;8.38;;;5.75;;
76745;SDS011;65671;49.976;20.038;2024-03-23T07:17:31;9.15;;;4.95;;
76745;SDS011;65671;49.976;20.038;2024-03-23T07:19:58;8.50;;;5.72;;
76745;SDS011;65671;49.976;20.038;2024-03-23T07:22:23;7.75;;;5.38;;
76745;SDS011;65671;49.976;20.038;2024-03-23T07:24:49;9.70;;;5.70;;
76745;SDS011;65671;49.976;20.038;2024-03-23T07:27:14;11.10;;;5.97;;
76745;SDS011;65671;49.976;20.038;2024-03-23T07:29:40;9.20;;;5.78;;
76745;SDS011;65671;49.976;20.038;2024-03-23T07:32:05;11.52;;;5.60;;
76745;SDS011;65671;49.976;20.038;2024-03-23T07:34:31;9.35;;;5.35;;
76745;SDS011;65671;49.976;20.038;2024-03-23T07:36:56;7.95;;;5.70;;
76745;SDS011;65671;49.976;20.038;2024-03-23T07:39:22;9.07;;;5.90;;
76745;SDS011;65671;49.976;20.038;2024-03-23T07:41:47;9.70;;;5.82;;
76745;SDS011;65671;49.976;20.038;2024-03-23T07:44:12;9.40;;;5.70;;
76745;SDS011;65671;49.976;20.038;2024-03-23T07:46:38;9.35;;;5.57;;
76745;SDS011;65671;49.976;20.038;2024-03-23T07:49:06;8.80;;;6.05;;
76745;SDS011;65671;49.976;20.038;2024-03-23T07:51:34;11.55;;;6.28;;
76745;SDS011;65671;49.976;20.038;2024-03-23T07:54:00;8.25;;;5.22;;
76745;SDS011;65671;49.976;20.038;2024-03-23T07:56:26;9.85;;;6.03;;
76745;SDS011;65671;49.976;20.038;2024-03-23T07:58:51;9.23;;;5.45;;
76745;SDS011;65671;49.976;20.038;2024-03-23T08:01:17;8.82;;;5.55;;
76745;SDS011;65671;49.976;20.038;2024-03-23T08:03:43;8.00;;;5.43;;
76745;SDS011;65671;49.976;20.038;2024-03-23T08:06:10;11.48;;;6.50;;
76745;SDS011;65671;49.976;20.038;2024-03-23T08:08:40;10.45;;;6.40;;
76745;SDS011;65671;49.976;20.038;2024-03-23T08:11:07;8.73;;;5.97;;
76745;SDS011;65671;49.976;20.038;2024-03-23T08:13:33;10.93;;;5.97;;
76745;SDS011;65671;49.976;20.038;2024-03-23T08:16:00;8.93;;;5.38;;
76745;SDS011;65671;49.976;20.038;2024-03-23T08:18:26;8.55;;;5.70;;
76745;SDS011;65671;49.976;20.038;2024-03-23T08:21:10;9.82;;;5.93;;
76745;SDS011;65671;49.976;20.038;2024-03-23T08:23:35;7.75;;;5.57;;
76745;SDS011;65671;49.976;20.038;2024-03-23T08:26:03;9.63;;;5.10;;
76745;SDS011;65671;49.976;20.038;2024-03-23T08:28:33;9.80;;;6.03;;
76745;SDS011;65671;49.976;20.038;2024-03-23T08:31:03;8.55;;;4.75;;
76745;SDS011;65671;49.976;20.038;2024-03-23T08:33:32;6.38;;;4.22;;
76745;SDS011;65671;49.976;20.038;2024-03-23T08:35:59;7.43;;;4.80;;
76745;SDS011;65671;49.976;20.038;2024-03-23T08:38:26;9.50;;;5.25;;
76745;SDS011;65671;49.976;20.038;2024-03-23T08:41:06;11.48;;;5.90;;
76745;SDS011;65671;49.976;20.038;2024-03-23T08:43:38;8.18;;;5.82;;
76745;SDS011;65671;49.976;20.038;2024-03-23T08:48:34;9.18;;;6.43;;
76745;SDS011;65671;49.976;20.038;2024-03-23T08:53:32;9.32;;;5.65;;
76745;SDS011;65671;49.976;20.038;2024-03-23T08:55:58;8.50;;;5.53;;
76745;SDS011;65671;49.976;20.038;2024-03-23T08:58:27;10.77;;;5.40;;
76745;SDS011;65671;49.976;20.038;2024-03-23T09:01:02;7.85;;;4.90;;
76745;SDS011;65671;49.976;20.038;2024-03-23T09:05:54;8.95;;;4.32;;
76745;SDS011;65671;49.976;20.038;2024-03-23T09:08:20;7.93;;;5.10;;
76745;SDS011;65671;49.976;20.038;2024-03-23T09:10:49;9.93;;;4.93;;
76745;SDS011;65671;49.976;20.038;2024-03-23T09:13:14;6.57;;;4.18;;
76745;SDS011;65671;49.976;20.038;2024-03-23T09:15:51;7.68;;;4.40;;
76745;SDS011;65671;49.976;20.038;2024-03-23T09:18:21;7.57;;;4.45;;
76745;SDS011;65671;49.976;20.038;2024-03-23T09:20:47;6.88;;;3.83;;
76745;SDS011;65671;49.976;20.038;2024-03-23T09:23:12;10.10;;;4.30;;
76745;SDS011;65671;49.976;20.038;2024-03-23T09:25:38;5.30;;;4.03;;
76745;SDS011;65671;49.976;20.038;2024-03-23T09:28:04;5.20;;;3.53;;
76745;SDS011;65671;49.976;20.038;2024-03-23T09:30:38;4.57;;;3.42;;
76745;SDS011;65671;49.976;20.038;2024-03-23T09:33:07;7.38;;;4.07;;
76745;SDS011;65671;49.976;20.038;2024-03-23T09:35:39;8.18;;;4.43;;
76745;SDS011;65671;49.976;20.038;2024-03-23T09:38:09;7.22;;;3.85;;
76745;SDS011;65671;49.976;20.038;2024-03-23T09:40:41;6.28;;;3.80;;
76745;SDS011;65671;49.976;20.038;2024-03-23T09:43:11;4.82;;;3.53;;
76745;SDS011;65671;49.976;20.038;2024-03-23T09:45:40;5.95;;;4.03;;
76745;SDS011;65671;49.976;20.038;2024-03-23T09:48:06;5.60;;;3.95;;
76745;SDS011;65671;49.976;20.038;2024-03-23T09:50:45;5.38;;;4.38;;
76745;SDS011;65671;49.976;20.038;2024-03-23T09:53:11;4.82;;;3.42;;
76745;SDS011;65671;49.976;20.038;2024-03-23T09:55:38;5.70;;;3.92;;
76745;SDS011;65671;49.976;20.038;2024-03-23T09:58:07;5.18;;;4.00;;
76745;SDS011;65671;49.976;20.038;2024-03-23T10:00:37;5.75;;;4.03;;
76745;SDS011;65671;49.976;20.038;2024-03-23T10:03:02;5.22;;;3.28;;
76745;SDS011;65671;49.976;20.038;2024-03-23T10:05:30;5.05;;;3.50;;
76745;SDS011;65671;49.976;20.038;2024-03-23T10:08:19;6.82;;;3.83;;
76745;SDS011;65671;49.976;20.038;2024-03-23T10:10:45;4.65;;;3.40;;
76745;SDS011;65671;49.976;20.038;2024-03-23T10:13:14;4.35;;;3.05;;
76745;SDS011;65671;49.976;20.038;2024-03-23T10:15:50;5.00;;;3.15;;
76745;SDS011;65671;49.976;20.038;2024-03-23T10:18:26;5.95;;;3.78;;
76745;SDS011;65671;49.976;20.038;2024-03-23T10:23:34;4.70;;;3.22;;
76745;SDS011;65671;49.976;20.038;2024-03-23T10:26:19;5.80;;;3.25;;
76745;SDS011;65671;49.976;20.038;2024-03-23T10:28:52;5.00;;;2.97;;
76745;SDS011;65671;49.976;20.038;2024-03-23T10:31:23;5.63;;;3.65;;
76745;SDS011;65671;49.976;20.038;2024-03-23T10:33:49;6.03;;;3.22;;
76745;SDS011;65671;49.976;20.038;2024-03-23T10:36:14;6.60;;;3.60;;
76745;SDS011;65671;49.976;20.038;2024-03-23T10:38:40;7.30;;;3.75;;
76745;SDS011;65671;49.976;20.038;2024-03-23T10:41:09;7.40;;;3.95;;
76745;SDS011;65671;49.976;20.038;2024-03-23T10:43:36;5.38;;;3.03;;
76745;SDS011;65671;49.976;20.038;2024-03-23T10:46:02;7.20;;;3.80;;
76745;SDS011;65671;49.976;20.038;2024-03-23T10:48:32;5.70;;;3.00;;
76745;SDS011;65671;49.976;20.038;2024-03-23T10:50:58;5.30;;;3.53;;
76745;SDS011;65671;49.976;20.038;2024-03-23T10:53:25;5.45;;;3.30;;
76745;SDS011;65671;49.976;20.038;2024-03-23T10:55:52;4.35;;;2.90;;
76745;SDS011;65671;49.976;20.038;2024-03-23T10:58:19;4.65;;;2.88;;
76745;SDS011;65671;49.976;20.038;2024-03-23T11:00:49;5.25;;;3.30;;
76745;SDS011;65671;49.976;20.038;2024-03-23T11:03:34;5.82;;;3.63;;
76745;SDS011;65671;49.976;20.038;2024-03-23T11:06:10;5.53;;;3.30;;
76745;SDS011;65671;49.976;20.038;2024-03-23T11:08:36;6.10;;;3.40;;
76745;SDS011;65671;49.976;20.038;2024-03-23T11:11:20;7.88;;;3.75;;
76745;SDS011;65671;49.976;20.038;2024-03-23T11:14:04;4.88;;;3.47;;
76745;SDS011;65671;49.976;20.038;2024-03-23T11:16:46;4.07;;;2.85;;
76745;SDS011;65671;49.976;20.038;2024-03-23T11:19:42;6.53;;;3.42;;
76745;SDS011;65671;49.976;20.038;2024-03-23T11:22:08;4.70;;;3.03;;
76745;SDS011;65671;49.976;20.038;2024-03-23T11:24:33;4.85;;;3.03;;
76745;SDS011;65671;49.976;20.038;2024-03-23T11:26:59;4.38;;;3.00;;
76745;SDS011;65671;49.976;20.038;2024-03-23T11:29:29;4.15;;;2.97;;
76745;SDS011;65671;49.976;20.038;2024-03-23T11:31:55;5.18;;;3.70;;
76745;SDS011;65671;49.976;20.038;2024-03-23T11:34:21;4.15;;;2.92;;
76745;SDS011;65671;49.976;20.038;2024-03-23T11:36:47;5.30;;;3.15;;
76745;SDS011;65671;49.976;20.038;2024-03-23T11:39:18;4.38;;;3.10;;
76745;SDS011;65671;49.976;20.038;2024-03-23T11:41:47;3.92;;;2.67;;
76745;SDS011;65671;49.976;20.038;2024-03-23T11:44:21;5.30;;;3.10;;
76745;SDS011;65671;49.976;20.038;2024-03-23T11:46:48;4.85;;;2.80;;
76745;SDS011;65671;49.976;20.038;2024-03-23T11:49:32;5.38;;;2.42;;
76745;SDS011;65671;49.976;20.038;2024-03-23T11:51:58;4.10;;;2.80;;
76745;SDS011;65671;49.976;20.038;2024-03-23T11:54:23;4.25;;;2.72;;
76745;SDS011;65671;49.976;20.038;2024-03-23T11:56:56;4.22;;;2.80;;
76745;SDS011;65671;49.976;20.038;2024-03-23T11:59:35;5.53;;;3.20;;
76745;SDS011;65671;49.976;20.038;2024-03-23T12:02:11;5.95;;;3.35;;
76745;SDS011;65671;49.976;20.038;2024-03-23T12:04:39;6.53;;;3.05;;
76745;SDS011;65671;49.976;20.038;2024-03-23T12:07:24;5.13;;;3.15;;
76745;SDS011;65671;49.976;20.038;2024-03-23T12:10:02;5.68;;;3.10;;
76745;SDS011;65671;49.976;20.038;2024-03-23T12:12:31;5.00;;;3.38;;
76745;SDS011;65671;49.976;20.038;2024-03-23T12:15:06;4.85;;;3.08;;
76745;SDS011;65671;49.976;20.038;2024-03-23T12:17:33;7.40;;;3.45;;
76745;SDS011;65671;49.976;20.038;2024-03-23T12:20:03;5.97;;;3.17;;
76745;SDS011;65671;49.976;20.038;2024-03-23T12:22:29;5.15;;;3.20;;
76745;SDS011;65671;49.976;20.038;2024-03-23T12:24:55;4.72;;;3.50;;
76745;SDS011;65671;49.976;20.038;2024-03-23T12:27:20;4.65;;;3.22;;
76745;SDS011;65671;49.976;20.038;2024-03-23T12:29:46;4.85;;;2.95;;
76745;SDS011;65671;49.976;20.038;2024-03-23T12:32:12;4.07;;;2.97;;
76745;SDS011;65671;49.976;20.038;2024-03-23T12:34:40;4.43;;;2.92;;
76745;SDS011;65671;49.976;20.038;2024-03-23T12:37:07;3.80;;;2.83;;
76745;SDS011;65671;49.976;20.038;2024-03-23T12:39:37;4.50;;;3.15;;
76745;SDS011;65671;49.976;20.038;2024-03-23T12:42:03;5.72;;;3.08;;
76745;SDS011;65671;49.976;20.038;2024-03-23T12:44:29;5.07;;;3.08;;
76745;SDS011;65671;49.976;20.038;2024-03-23T12:46:57;4.90;;;3.08;;
76745;SDS011;65671;49.976;20.038;2024-03-23T12:49:22;5.15;;;3.08;;
76745;SDS011;65671;49.976;20.038;2024-03-23T12:51:52;5.88;;;3.47;;
76745;SDS011;65671;49.976;20.038;2024-03-23T12:54:20;5.20;;;3.13;;
76745;SDS011;65671;49.976;20.038;2024-03-23T12:56:46;4.40;;;2.85;;
76745;SDS011;65671;49.976;20.038;2024-03-23T12:59:14;4.72;;;2.90;;
76745;SDS011;65671;49.976;20.038;2024-03-23T13:01:41;3.60;;;2.78;;
76745;SDS011;65671;49.976;20.038;2024-03-23T13:04:06;4.70;;;3.38;;
76745;SDS011;65671;49.976;20.038;2024-03-23T13:06:32;5.97;;;3.25;;
76745;SDS011;65671;49.976;20.038;2024-03-23T13:09:02;4.25;;;3.10;;
76745;SDS011;65671;49.976;20.038;2024-03-23T13:11:30;5.78;;;3.33;;
76745;SDS011;65671;49.976;20.038;2024-03-23T13:13:56;4.47;;;3.10;;
76745;SDS011;65671;49.976;20.038;2024-03-23T13:16:22;6.40;;;3.22;;
76745;SDS011;65671;49.976;20.038;2024-03-23T13:18:47;4.32;;;2.67;;
76745;SDS011;65671;49.976;20.038;2024-03-23T13:21:13;4.18;;;2.65;;
76745;SDS011;65671;49.976;20.038;2024-03-23T13:23:38;4.35;;;2.83;;
76745;SDS011;65671;49.976;20.038;2024-03-23T13:26:07;4.00;;;2.63;;
76745;SDS011;65671;49.976;20.038;2024-03-23T13:28:36;4.47;;;2.53;;
76745;SDS011;65671;49.976;20.038;2024-03-23T13:31:01;4.10;;;2.75;;
76745;SDS011;65671;49.976;20.038;2024-03-23T13:33:28;4.05;;;2.58;;
76745;SDS011;65671;49.976;20.038;2024-03-23T13:35:55;4.72;;;2.60;;
76745;SDS011;65671;49.976;20.038;2024-03-23T13:38:21;4.13;;;2.72;;
76745;SDS011;65671;49.976;20.038;2024-03-23T13:43:22;4.88;;;2.92;;
76745;SDS011;65671;49.976;20.038;2024-03-23T13:45:48;4.15;;;2.75;;
76745;SDS011;65671;49.976;20.038;2024-03-23T13:48:18;5.30;;;2.65;;
76745;SDS011;65671;49.976;20.038;2024-03-23T13:51:00;4.20;;;2.42;;
76745;SDS011;65671;49.976;20.038;2024-03-23T13:53:27;3.92;;;2.50;;
76745;SDS011;65671;49.976;20.038;2024-03-23T13:55:55;4.28;;;2.72;;
76745;SDS011;65671;49.976;20.038;2024-03-23T13:58:21;5.93;;;2.40;;
76745;SDS011;65671;49.976;20.038;2024-03-23T14:00:47;3.47;;;2.33;;
76745;SDS011;65671;49.976;20.038;2024-03-23T14:03:13;4.55;;;3.13;;
76745;SDS011;65671;49.976;20.038;2024-03-23T14:05:41;5.15;;;3.15;;
76745;SDS011;65671;49.976;20.038;2024-03-23T14:08:07;5.35;;;2.83;;
76745;SDS011;65671;49.976;20.038;2024-03-23T14:10:34;6.22;;;3.53;;
76745;SDS011;65671;49.976;20.038;2024-03-23T14:13:03;6.72;;;3.75;;
76745;SDS011;65671;49.976;20.038;2024-03-23T14:15:28;6.75;;;3.33;;
76745;SDS011;65671;49.976;20.038;2024-03-23T14:17:58;5.72;;;2.80;;
76745;SDS011;65671;49.976;20.038;2024-03-23T14:20:24;4.18;;;2.13;;
76745;SDS011;65671;49.976;20.038;2024-03-23T14:22:49;3.28;;;2.30;;
76745;SDS011;65671;49.976;20.038;2024-03-23T14:25:15;3.75;;;2.00;;
76745;SDS011;65671;49.976;20.038;2024-03-23T14:27:40;5.25;;;2.30;;
76745;SDS011;65671;49.976;20.038;2024-03-23T14:30:11;2.97;;;2.17;;
76745;SDS011;65671;49.976;20.038;2024-03-23T14:32:37;3.50;;;2.53;;
76745;SDS011;65671;49.976;20.038;2024-03-23T14:35:03;4.45;;;2.90;;
76745;SDS011;65671;49.976;20.038;2024-03-23T14:37:29;6.32;;;3.13;;
76745;SDS011;65671;49.976;20.038;2024-03-23T14:39:58;6.57;;;2.80;;
76745;SDS011;65671;49.976;20.038;2024-03-23T14:42:24;4.20;;;2.70;;
76745;SDS011;65671;49.976;20.038;2024-03-23T14:44:50;6.15;;;2.80;;
76745;SDS011;65671;49.976;20.038;2024-03-23T14:47:16;20.65;;;3.25;;
76745;SDS011;65671;49.976;20.038;2024-03-23T14:49:46;6.70;;;3.05;;
76745;SDS011;65671;49.976;20.038;2024-03-23T14:52:15;6.40;;;2.63;;
76745;SDS011;65671;49.976;20.038;2024-03-23T14:54:40;8.60;;;2.00;;
76745;SDS011;65671;49.976;20.038;2024-03-23T14:57:06;3.95;;;1.63;;
76745;SDS011;65671;49.976;20.038;2024-03-23T14:59:34;2.42;;;1.40;;
76745;SDS011;65671;49.976;20.038;2024-03-23T15:02:03;3.92;;;2.05;;
76745;SDS011;65671;49.976;20.038;2024-03-23T15:04:32;4.20;;;1.30;;
76745;SDS011;65671;49.976;20.038;2024-03-23T15:06:57;3.53;;;1.33;;
76745;SDS011;65671;49.976;20.038;2024-03-23T15:09:23;1.50;;;1.10;;
76745;SDS011;65671;49.976;20.038;2024-03-23T15:11:48;2.45;;;1.52;;
76745;SDS011;65671;49.976;20.038;2024-03-23T15:14:13;2.22;;;1.30;;
76745;SDS011;65671;49.976;20.038;2024-03-23T15:16:39;3.10;;;1.45;;
76745;SDS011;65671;49.976;20.038;2024-03-23T15:19:04;3.85;;;1.92;;
76745;SDS011;65671;49.976;20.038;2024-03-23T15:21:31;2.17;;;1.38;;
76745;SDS011;65671;49.976;20.038;2024-03-23T15:23:57;2.67;;;1.60;;
76745;SDS011;65671;49.976;20.038;2024-03-23T15:26:22;5.82;;;2.65;;
76745;SDS011;65671;49.976;20.038;2024-03-23T15:28:48;3.17;;;1.95;;
76745;SDS011;65671;49.976;20.038;2024-03-23T15:31:23;2.65;;;1.52;;
76745;SDS011;65671;49.976;20.038;2024-03-23T15:33:49;2.65;;;1.45;;
76745;SDS011;65671;49.976;20.038;2024-03-23T15:36:15;1.83;;;1.23;;